Time;durP1;ratioP1;P1;durP2;ratioP2;P2;SDS_P1;SDS_P2;PMS_P1;PMS_P2;Temp;Humidity;BMP_temperature;BMP_pressure;BME280_temperature;BME280_humidity;BME280_pressure;Samples;Min_cycle;Max_cycle;Signal;HPM_P1;HPM_P2
2023/10/22 00:01:03;;;;;;;;;;;;;;;;;;5042497;28;20059;-84
2023/10/22 00:03:28;;;;;;;;;;;;;;;;;;5032447;28;20019;-84
2023/10/22 00:05:54;;;;;;;;;;;;;;;;;;5008920;28;20002;-84
2023/10/22 00:08:29;;;;;;;;;;;;;;;;;;5050015;28;20079;-84
2023/10/22 00:10:55;;;;;;;;;;;;;;;;;;5034777;28;19933;-84
2023/10/22 00:13:21;;;;;;;;;;;;;;;;;;5029925;28;19932;-85
2023/10/22 00:15:47;;;;;;;;;;;;;;;;;;5042247;28;19935;-84
2023/10/22 00:18:14;;;;;;;;;;;;;;;;;;5023051;28;19925;-84
2023/10/22 00:20:41;;;;;;;;;;;;;;;;;;5029489;28;19932;-84
2023/10/22 00:23:07;;;;;;;;;;;;;;;;;;5027465;28;19929;-84
2023/10/22 00:25:33;;;;;;;;;;;;;;;;;;5019616;28;19929;-86
2023/10/22 00:27:59;;;;;;;;;;;;;;;;;;4999560;28;20799;-86
2023/10/22 00:30:25;;;;;;;;;;;;;;;;;;5012483;28;19925;-86
2023/10/22 00:32:51;;;;;;;;;;;;;;;;;;5024535;28;19938;-85
2023/10/22 00:35:17;;;;;;;;;;;;;;;;;;5002063;28;20620;-85
2023/10/22 00:37:43;;;;;;;;;;;;;;;;;;5005857;28;19924;-85
2023/10/22 00:40:09;;;;;;;;;;;;;;;;;;5010449;28;20403;-86
2023/10/22 00:42:35;;;;;;;;;;;;;;;;;;5012956;28;19924;-85
2023/10/22 00:45:02;;;;;;;;;;;;;;;;;;5023754;28;19935;-85
2023/10/22 00:47:31;;;;;;;;;;;;;;;;;;5020525;28;20384;-85
2023/10/22 00:49:56;;;;;;;;;;;;;;;;;;5044708;28;19982;-84
2023/10/22 00:52:22;;;;;;;;;;;;;;;;;;5023929;28;19929;-84
2023/10/22 00:54:48;;;;;;;;;;;;;;;;;;5027417;28;19936;-83
2023/10/22 00:57:15;;;;;;;;;;;;;;;;;;5024619;28;19925;-83
2023/10/22 00:59:41;;;;;;;;;;;;;;;;;;5052882;28;20291;-84
2023/10/22 01:02:07;;;;;;;;;;;;;;;;;;5039989;28;19924;-84
2023/10/22 01:04:33;;;;;;;;;;;;;;;;;;5026990;28;19940;-84
2023/10/22 01:06:59;;;;;;;;;;;;;;;;;;5021640;28;19928;-83
2023/10/22 01:09:25;;;;;;;;;;;;;;;;;;5034722;28;19924;-84
2023/10/22 01:11:51;;;;;;;;;;;;;;;;;;5048117;28;19951;-85
2023/10/22 01:14:17;;;;;;;;;;;;;;;;;;5042859;28;19968;-84
2023/10/22 01:16:43;;;;;;;;;;;;;;;;;;5029471;28;20026;-84
2023/10/22 01:19:09;;;;;;;;;;;;;;;;;;5046095;28;19929;-85
2023/10/22 01:21:34;;;;;;;;;;;;;;;;;;5014130;28;19929;-85
2023/10/22 01:24:00;;;;;;;;;;;;;;;;;;5023915;28;19982;-84
2023/10/22 01:26:26;;;;;;;;;;;;;;;;;;5031454;28;20389;-85
2023/10/22 01:28:52;;;;;;;;;;;;;;;;;;5027024;28;20098;-84
2023/10/22 01:31:18;;;;;;;;;;;;;;;;;;5015188;28;20333;-85
2023/10/22 01:33:44;;;;;;;;;;;;;;;;;;5024179;28;19929;-84
2023/10/22 01:36:10;;;;;;;;;;;;;;;;;;5010888;28;19951;-83
2023/10/22 01:38:36;;;;;;;;;;;;;;;;;;5021362;28;19971;-84
2023/10/22 01:41:02;;;;;;;;;;;;;;;;;;5032107;28;19940;-84
2023/10/22 01:43:29;;;;;;;;;;;;;;;;;;5026116;28;19928;-83
2023/10/22 01:45:55;;;;;;;;;;;;;;;;;;4999730;28;19964;-83
2023/10/22 01:48:20;;;;;;;;;;;;;;;;;;5015015;28;20389;-84
2023/10/22 01:50:46;;;;;;;;;;;;;;;;;;5017332;28;19929;-84
2023/10/22 01:53:12;;;;;;;;;;;;;;;;;;5021661;28;20021;-84
2023/10/22 01:55:38;;;;;;;;;;;;;;;;;;5030632;28;19932;-83
2023/10/22 01:58:05;;;;;;;;;;;;;;;;;;5012945;28;19939;-83
2023/10/22 02:00:32;;;;;;;;;;;;;;;;;;5021805;28;19983;-84
2023/10/22 02:02:58;;;;;;;;;;;;;;;;;;5009814;28;19936;-83
2023/10/22 02:05:24;;;;;;;;;;;;;;;;;;5023384;28;19982;-84
2023/10/22 02:07:51;;;;;;;;;;;;;;;;;;5015464;28;19929;-85
2023/10/22 02:12:45;;;;;;;;;;;;;;;;;;5042946;22;19978;-83
2023/10/22 02:15:11;;;;;;;;;;;;;;;;;;5033721;28;19976;-84
2023/10/22 02:17:37;;;;;;;;;;;;;;;;;;5019961;28;19983;-84
2023/10/22 02:20:03;;;;;;;;;;;;;;;;;;5019214;28;19928;-84
2023/10/22 02:22:29;;;;;;;;;;;;;;;;;;4997849;28;20289;-84
2023/10/22 02:24:55;;;;;;;;;;;;;;;;;;5009613;28;19929;-83
2023/10/22 02:27:21;;;;;;;;;;;;;;;;;;5009933;28;19929;-83
2023/10/22 02:29:48;;;;;;;;;;;;;;;;;;5019568;28;19936;-83
2023/10/22 02:32:14;;;;;;;;;;;;;;;;;;5027912;28;19940;-83
2023/10/22 02:34:40;;;;;;;;;;;;;;;;;;5024334;28;19936;-83
2023/10/22 02:37:06;;;;;;;;;;;;;;;;;;5021192;28;19984;-84
2023/10/22 02:39:32;;;;;;;;;;;;;;;;;;5038118;28;19929;-83
2023/10/22 02:41:58;;;;;;;;;;;;;;;;;;5015390;28;20496;-84
2023/10/22 02:44:23;;;;;;;;;;;;;;;;;;5016473;28;19929;-83
2023/10/22 02:46:49;;;;;;;;;;;;;;;;;;5023452;28;19932;-84
2023/10/22 02:49:15;;;;;;;;;;;;;;;;;;5019463;28;20682;-85
2023/10/22 02:51:41;;;;;;;;;;;;;;;;;;5020888;28;19980;-83
2023/10/22 02:54:07;;;;;;;;;;;;;;;;;;5033158;28;20583;-87
2023/10/22 02:56:33;;;;;;;;;;;;;;;;;;5018823;28;19937;-84
2023/10/22 02:58:59;;;;;;;;;;;;;;;;;;5003860;28;20028;-84
2023/10/22 03:01:26;;;;;;;;;;;;;;;;;;5019413;28;20358;-84
2023/10/22 03:03:52;;;;;;;;;;;;;;;;;;5003116;28;19928;-85
2023/10/22 03:06:18;;;;;;;;;;;;;;;;;;4998491;28;20487;-85
2023/10/22 03:08:44;;;;;;;;;;;;;;;;;;4998977;28;19935;-85
2023/10/22 03:11:10;;;;;;;;;;;;;;;;;;5015899;28;20447;-86
2023/10/22 03:13:39;;;;;;;;;;;;;;;;;;5011841;28;19977;-84
2023/10/22 03:16:05;;;;;;;;;;;;;;;;;;5002047;28;19923;-84
2023/10/22 03:18:31;;;;;;;;;;;;;;;;;;5029741;28;19924;-84
2023/10/22 03:20:57;;;;;;;;;;;;;;;;;;5018716;28;19929;-84
2023/10/22 03:23:23;;;;;;;;;;;;;;;;;;5041231;28;19939;-85
2023/10/22 03:25:50;;;;;;;;;;;;;;;;;;5032792;28;20702;-87
2023/10/22 03:28:16;;;;;;;;;;;;;;;;;;5014732;28;19933;-85
2023/10/22 03:30:42;;;;;;;;;;;;;;;;;;5002646;28;19929;-85
2023/10/22 03:33:08;;;;;;;;;;;;;;;;;;5036908;28;19931;-84
2023/10/22 03:35:36;;;;;;;;;;;;;;;;;;5047703;28;20067;-85
2023/10/22 03:38:02;;;;;;;;;;;;;;;;;;5004017;28;19935;-85
2023/10/22 03:40:28;;;;;;;;;;;;;;;;;;5021448;28;19944;-85
2023/10/22 03:42:54;;;;;;;;;;;;;;;;;;5024755;28;19980;-84
2023/10/22 03:45:20;;;;;;;;;;;;;;;;;;5004412;28;19935;-85
2023/10/22 03:47:46;;;;;;;;;;;;;;;;;;5012930;28;19940;-84
2023/10/22 03:50:12;;;;;;;;;;;;;;;;;;5013083;28;19933;-85
2023/10/22 03:52:38;;;;;;;;;;;;;;;;;;5035238;28;19928;-85
2023/10/22 03:55:04;;;;;;;;;;;;;;;;;;5044359;28;19940;-85
2023/10/22 03:57:30;;;;;;;;;;;;;;;;;;5016023;28;19932;-84
2023/10/22 03:59:56;;;;;;;;;;;;;;;;;;5024066;28;19929;-85
2023/10/22 04:02:23;;;;;;;;;;;;;;;;;;5016980;28;20365;-84
2023/10/22 04:04:49;;;;;;;;;;;;;;;;;;5035564;28;19921;-84
2023/10/22 04:07:15;;;;;;;;;;;;;;;;;;5042135;28;19955;-84
2023/10/22 04:09:40;;;;;;;;;;;;;;;;;;5010447;28;19925;-85
2023/10/22 04:12:08;;;;;;;;;;;;;;;;;;5025897;28;19925;-84
2023/10/22 04:14:36;;;;;;;;;;;;;;;;;;5000754;28;19925;-83
2023/10/22 04:17:02;;;;;;;;;;;;;;;;;;5039357;28;19939;-84
2023/10/22 04:19:28;;;;;;;;;;;;;;;;;;5007269;28;20390;-84
2023/10/22 04:21:54;;;;;;;;;;;;;;;;;;5016097;28;19929;-84
2023/10/22 04:24:20;;;;;;;;;;;;;;;;;;4996829;28;20064;-84
2023/10/22 04:26:46;;;;;;;;;;;;;;;;;;5002731;28;19947;-83
2023/10/22 04:29:12;;;;;;;;;;;;;;;;;;5003114;28;20302;-84
2023/10/22 04:31:38;;;;;;;;;;;;;;;;;;5010426;28;19929;-84
2023/10/22 04:34:04;;;;;;;;;;;;;;;;;;5037775;28;19925;-84
2023/10/22 04:36:29;;;;;;;;;;;;;;;;;;5027261;28;19928;-84
2023/10/22 04:38:55;;;;;;;;;;;;;;;;;;5047905;28;19925;-84
2023/10/22 04:41:21;;;;;;;;;;;;;;;;;;5037413;28;19929;-85
2023/10/22 04:43:47;;;;;;;;;;;;;;;;;;5037271;28;19929;-83
2023/10/22 04:46:13;;;;;;;;;;;;;;;;;;4999317;28;20324;-84
2023/10/22 04:48:39;;;;;;;;;;;;;;;;;;5041969;28;20020;-84
2023/10/22 04:51:06;;;;;;;;;;;;;;;;;;5046996;28;20023;-84
2023/10/22 04:53:32;;;;;;;;;;;;;;;;;;5038164;28;20011;-84
2023/10/22 04:56:07;;;;;;;;;;;;;;;;;;5020688;28;19937;-84
2023/10/22 04:58:33;;;;;;;;;;;;;;;;;;5019474;28;19924;-84
2023/10/22 05:00:59;;;;;;;;;;;;;;;;;;5024681;28;20525;-84
2023/10/22 05:03:24;;;;;;;;;;;;;;;;;;5034519;28;20638;-84
2023/10/22 05:05:50;;;;;;;;;;;;;;;;;;5017773;28;19930;-83
2023/10/22 05:08:16;;;;;;;;;;;;;;;;;;5004486;28;19933;-84
2023/10/22 05:10:42;;;;;;;;;;;;;;;;;;5015496;28;19925;-83
2023/10/22 05:13:12;;;;;;;;;;;;;;;;;;4998020;28;20368;-87
2023/10/22 05:15:38;;;;;;;;;;;;;;;;;;5019229;28;19979;-84
2023/10/22 05:18:04;;;;;;;;;;;;;;;;;;5005350;28;20395;-83
2023/10/22 05:20:30;;;;;;;;;;;;;;;;;;5015494;28;20369;-83
2023/10/22 05:22:56;;;;;;;;;;;;;;;;;;5021286;28;19925;-86
2023/10/22 05:25:22;;;;;;;;;;;;;;;;;;5019114;28;19936;-84
2023/10/22 05:27:49;;;;;;;;;;;;;;;;;;5005630;28;19929;-85
2023/10/22 05:30:15;;;;;;;;;;;;;;;;;;5008894;28;20522;-84
2023/10/22 05:32:41;;;;;;;;;;;;;;;;;;5019929;28;21019;-83
2023/10/22 05:35:06;;;;;;;;;;;;;;;;;;5036135;28;20018;-83
2023/10/22 05:37:32;;;;;;;;;;;;;;;;;;5022490;28;19925;-85
2023/10/22 05:39:58;;;;;;;;;;;;;;;;;;5003609;28;19937;-84
2023/10/22 05:42:24;;;;;;;;;;;;;;;;;;5032326;28;19983;-84
2023/10/22 05:44:50;;;;;;;;;;;;;;;;;;5015658;28;20510;-84
2023/10/22 05:47:16;;;;;;;;;;;;;;;;;;5019911;28;20321;-83
2023/10/22 05:49:42;;;;;;;;;;;;;;;;;;5028363;28;19928;-84
2023/10/22 05:52:08;;;;;;;;;;;;;;;;;;5014723;28;19960;-84
2023/10/22 05:54:34;;;;;;;;;;;;;;;;;;5014349;28;19928;-84
2023/10/22 05:57:00;;;;;;;;;;;;;;;;;;5017411;28;20675;-84
2023/10/22 05:59:26;;;;;;;;;;;;;;;;;;5033400;28;20307;-85
2023/10/22 06:01:51;;;;;;;;;;;;;;;;;;5032755;28;19924;-85
2023/10/22 06:04:17;;;;;;;;;;;;;;;;;;5031410;28;19939;-84
2023/10/22 06:06:43;;;;;;;;;;;;;;;;;;5022411;28;19925;-84
2023/10/22 06:09:11;;;;;;;;;;;;;;;;;;5026363;28;20390;-83
2023/10/22 06:11:37;;;;;;;;;;;;;;;;;;5020869;28;20016;-85
2023/10/22 06:14:04;;;;;;;;;;;;;;;;;;5017402;28;19932;-84
2023/10/22 06:16:30;;;;;;;;;;;;;;;;;;5018771;28;20563;-85
2023/10/22 06:18:57;;;;;;;;;;;;;;;;;;5023215;28;20546;-84
2023/10/22 06:21:23;;;;;;;;;;;;;;;;;;5039807;28;19926;-83
2023/10/22 06:23:49;;;;;;;;;;;;;;;;;;5024142;28;20330;-83
2023/10/22 06:26:15;;;;;;;;;;;;;;;;;;5015498;28;19936;-84
2023/10/22 06:28:41;;;;;;;;;;;;;;;;;;5011703;28;19925;-84
2023/10/22 06:31:07;;;;;;;;;;;;;;;;;;5021678;28;20051;-83
2023/10/22 06:33:33;;;;;;;;;;;;;;;;;;5005205;28;19932;-83
2023/10/22 06:35:59;;;;;;;;;;;;;;;;;;5016254;28;20015;-84
2023/10/22 06:38:25;;;;;;;;;;;;;;;;;;5036056;28;19929;-82
2023/10/22 06:40:51;;;;;;;;;;;;;;;;;;5036445;28;20026;-84
2023/10/22 06:43:17;;;;;;;;;;;;;;;;;;5033133;28;19935;-85
2023/10/22 06:45:43;;;;;;;;;;;;;;;;;;5034670;28;19929;-84
2023/10/22 06:48:09;;;;;;;;;;;;;;;;;;5023717;28;21396;-83
2023/10/22 06:50:35;;;;;;;;;;;;;;;;;;5012715;28;19976;-83
2023/10/22 06:53:04;;;;;;;;;;;;;;;;;;5020047;28;19940;-83
2023/10/22 06:55:30;;;;;;;;;;;;;;;;;;5002640;28;19929;-84
2023/10/22 06:57:56;;;;;;;;;;;;;;;;;;4998800;28;19925;-87
2023/10/22 07:00:22;;;;;;;;;;;;;;;;;;5028808;28;19929;-84
2023/10/22 07:02:48;;;;;;;;;;;;;;;;;;5015241;28;20296;-85
2023/10/22 07:05:14;;;;;;;;;;;;;;;;;;5035025;28;19948;-85
2023/10/22 07:07:41;;;;;;;;;;;;;;;;;;5008701;28;20066;-85
2023/10/22 07:10:07;;;;;;;;;;;;;;;;;;5171035;22;19924;-86
2023/10/22 07:12:34;;;;;;;;;;;;;;;;;;5012804;28;20325;-82
2023/10/22 07:15:00;;;;;;;;;;;;;;;;;;5026011;28;19944;-82
2023/10/22 07:17:25;;;;;;;;;;;;;;;;;;5019219;28;19929;-83
2023/10/22 07:19:51;;;;;;;;;;;;;;;;;;5014461;28;19929;-87
2023/10/22 07:22:21;;;;;;;;;;;;;;;;;;5014804;28;19929;-85
2023/10/22 07:24:47;;;;;;;;;;;;;;;;;;4996804;28;20526;-87
2023/10/22 07:27:13;;;;;;;;;;;;;;;;;;5026083;28;20023;-84
2023/10/22 07:29:38;;;;;;;;;;;;;;;;;;5034433;28;20022;-84
2023/10/22 07:32:04;;;;;;;;;;;;;;;;;;5022629;28;19968;-83
2023/10/22 07:34:31;;;;;;;;;;;;;;;;;;5016249;28;19933;-85
2023/10/22 07:36:57;;;;;;;;;;;;;;;;;;5004902;28;20392;-83
2023/10/22 07:39:23;;;;;;;;;;;;;;;;;;5009398;28;19936;-86
2023/10/22 07:41:49;;;;;;;;;;;;;;;;;;5026799;28;20316;-84
2023/10/22 07:44:15;;;;;;;;;;;;;;;;;;5018465;28;19931;-83
2023/10/22 07:46:41;;;;;;;;;;;;;;;;;;5027096;28;19983;-84
2023/10/22 07:49:08;;;;;;;;;;;;;;;;;;5003513;28;19924;-84
2023/10/22 07:51:34;;;;;;;;;;;;;;;;;;5019040;28;19939;-84
2023/10/22 07:54:00;;;;;;;;;;;;;;;;;;5036936;28;20114;-84
2023/10/22 07:56:27;;;;;;;;;;;;;;;;;;5040056;28;19928;-84
2023/10/22 07:58:56;;;;;;;;;;;;;;;;;;5027141;28;20306;-83
2023/10/22 08:01:23;;;;;;;;;;;;;;;;;;5023696;28;21216;-84
2023/10/22 08:03:50;;;;;;;;;;;;;;;;;;5020046;28;19929;-85
2023/10/22 08:06:16;;;;;;;;;;;;;;;;;;5002686;28;20012;-87
2023/10/22 08:08:42;;;;;;;;;;;;;;;;;;5046152;28;19984;-85
2023/10/22 08:11:08;;;;;;;;;;;;;;;;;;4998833;28;20940;-85
2023/10/22 08:13:34;;;;;;;;;;;;;;;;;;4985142;28;20016;-83
2023/10/22 08:16:00;;;;;;;;;;;;;;;;;;4987014;28;19972;-83
2023/10/22 08:18:26;;;;;;;;;;;;;;;;;;4987772;28;20288;-84
2023/10/22 08:20:52;;;;;;;;;;;;;;;;;;4983881;28;19992;-84
2023/10/22 08:23:17;;;;;;;;;;;;;;;;;;4991338;28;19936;-87
2023/10/22 08:25:43;;;;;;;;;;;;;;;;;;4986994;28;19933;-88
2023/10/22 08:28:09;;;;;;;;;;;;;;;;;;4984132;28;19936;-86
2023/10/22 08:30:35;;;;;;;;;;;;;;;;;;4984023;28;20040;-85
2023/10/22 08:33:01;;;;;;;;;;;;;;;;;;4984029;28;19933;-84
2023/10/22 08:35:27;;;;;;;;;;;;;;;;;;4984232;28;19950;-84
2023/10/22 08:37:53;;;;;;;;;;;;;;;;;;4988846;28;19929;-84
2023/10/22 08:40:19;;;;;;;;;;;;;;;;;;4974819;28;19930;-84
2023/10/22 08:42:47;;;;;;;;;;;;;;;;;;4989093;28;20004;-84
2023/10/22 08:45:13;;;;;;;;;;;;;;;;;;4963171;28;19933;-85
2023/10/22 08:47:39;;;;;;;;;;;;;;;;;;5002131;28;19926;-86
2023/10/22 08:50:05;;;;;;;;;;;;;;;;;;4994386;28;19929;-86
2023/10/22 08:52:31;;;;;;;;;;;;;;;;;;4995937;28;19933;-86
2023/10/22 08:54:57;;;;;;;;;;;;;;;;;;4989939;28;19933;-85
2023/10/22 08:57:31;;;;;;;;;;;;;;;;;;4973355;28;20722;-84
2023/10/22 09:00:04;;;;;;;;;;;;;;;;;;4969515;28;20056;-87
2023/10/22 09:02:30;;;;;;;;;;;;;;;;;;4994041;28;19952;-84
2023/10/22 09:04:56;;;;;;;;;;;;;;;;;;4981157;28;20421;-90
2023/10/22 09:07:25;;;;;;;;;;;;;;;;;;4980280;28;19938;-89
2023/10/22 09:30:44;;;;;;;;;;;;;;;;;;5078320;23;20651;-87
2023/10/22 09:33:13;;;;;;;;;;;;;;;;;;4997147;28;20000;-89
2023/10/22 09:35:40;;;;;;;;;;;;;;;;;;5002915;28;19947;-90
2023/10/22 09:38:10;;;;;;;;;;;;;;;;;;4998384;28;19929;-88
2023/10/22 09:40:36;;;;;;;;;;;;;;;;;;4971254;28;19987;-89
2023/10/22 09:43:08;;;;;;;;;;;;;;;;;;4981314;28;19965;-88
2023/10/22 09:45:37;;;;;;;;;;;;;;;;;;5011179;28;20393;-90
2023/10/22 09:48:06;;;;;;;;;;;;;;;;;;4977984;28;19965;-87
2023/10/22 09:50:32;;;;;;;;;;;;;;;;;;4985216;28;19937;-89
2023/10/22 09:53:02;;;;;;;;;;;;;;;;;;4984003;28;20156;-89
2023/10/22 09:55:34;;;;;;;;;;;;;;;;;;4968494;28;20020;-88
2023/10/22 09:58:00;;;;;;;;;;;;;;;;;;4991512;28;19935;-88
2023/10/22 10:00:29;;;;;;;;;;;;;;;;;;4992791;28;19936;-87
2023/10/22 10:02:55;;;;;;;;;;;;;;;;;;4985757;28;20015;-89
2023/10/22 10:05:24;;;;;;;;;;;;;;;;;;5012049;28;19921;-89
2023/10/22 10:07:53;;;;;;;;;;;;;;;;;;4983714;28;20362;-85
2023/10/22 10:10:19;;;;;;;;;;;;;;;;;;5010915;28;19925;-86
2023/10/22 10:12:45;;;;;;;;;;;;;;;;;;4993139;28;19929;-86
2023/10/22 10:15:11;;;;;;;;;;;;;;;;;;5015324;28;20044;-85
2023/10/22 10:17:37;;;;;;;;;;;;;;;;;;4969930;28;19929;-89
2023/10/22 10:20:03;;;;;;;;;;;;;;;;;;5008948;28;19933;-85
2023/10/22 10:22:29;;;;;;;;;;;;;;;;;;5011076;28;20420;-86
2023/10/22 10:33:18;;;;;;;;;;;;;;;;;;6098688;22;19943;-89
2023/10/22 10:35:47;;;;;;;;;;;;;;;;;;4997100;28;19929;-87
2023/10/22 10:38:20;;;;;;;;;;;;;;;;;;4994350;28;19937;-88
2023/10/22 10:40:46;;;;;;;;;;;;;;;;;;5020540;28;19988;-89
2023/10/22 10:43:24;;;;;;;;;;;;;;;;;;5014488;28;19926;-87
2023/10/22 10:45:59;;;;;;;;;;;;;;;;;;5017062;28;20018;-90
2023/10/22 10:48:25;;;;;;;;;;;;;;;;;;5013908;28;19939;-87
2023/10/22 10:50:51;;;;;;;;;;;;;;;;;;5007982;28;19930;-87
2023/10/22 10:53:30;;;;;;;;;;;;;;;;;;5013111;28;19929;-87
2023/10/22 10:56:14;;;;;;;;;;;;;;;;;;4978642;28;19936;-87
2023/10/22 10:58:40;;;;;;;;;;;;;;;;;;4988457;28;19936;-86
2023/10/22 11:01:09;;;;;;;;;;;;;;;;;;5024676;28;19936;-85
2023/10/22 11:03:38;;;;;;;;;;;;;;;;;;5016552;28;19929;-87
2023/10/22 11:06:10;;;;;;;;;;;;;;;;;;5009774;28;19955;-89
2023/10/22 11:08:36;;;;;;;;;;;;;;;;;;5020039;28;19929;-86
2023/10/22 11:11:02;;;;;;;;;;;;;;;;;;5014673;28;19955;-87
2023/10/22 11:19:43;;;;;;;;;;;;;;;;;;5012322;28;19944;-87
2023/10/22 11:22:12;;;;;;;;;;;;;;;;;;5026581;28;19932;-86
2023/10/22 11:24:38;;;;;;;;;;;;;;;;;;5009019;28;19940;-87
2023/10/22 11:27:04;;;;;;;;;;;;;;;;;;4992700;28;19939;-87
2023/10/22 11:32:28;;;;;;;;;;;;;;;;;;5012117;28;19929;-85
2023/10/22 11:34:54;;;;;;;;;;;;;;;;;;4991757;28;20422;-87
2023/10/22 11:37:30;;;;;;;;;;;;;;;;;;5019617;28;20643;-85
2023/10/22 11:39:56;;;;;;;;;;;;;;;;;;5003968;28;19936;-85
2023/10/22 11:42:23;;;;;;;;;;;;;;;;;;5012318;28;20028;-86
2023/10/22 11:44:49;;;;;;;;;;;;;;;;;;5015362;28;19936;-88
2023/10/22 11:47:17;;;;;;;;;;;;;;;;;;5011259;28;20377;-86
2023/10/22 11:49:53;;;;;;;;;;;;;;;;;;4986101;28;19941;-84
2023/10/22 11:52:19;;;;;;;;;;;;;;;;;;5011506;28;20333;-86
2023/10/22 11:54:45;;;;;;;;;;;;;;;;;;5011040;28;19929;-84
2023/10/22 11:57:26;;;;;;;;;;;;;;;;;;5011484;28;20691;-84
2023/10/22 11:59:52;;;;;;;;;;;;;;;;;;5002569;28;19933;-85
2023/10/22 12:02:18;;;;;;;;;;;;;;;;;;5014755;28;19933;-86
2023/10/22 12:07:20;;;;;;;;;;;;;;;;;;5699319;23;19930;-83
2023/10/22 12:09:46;;;;;;;;;;;;;;;;;;4964834;28;19933;-82
2023/10/22 12:12:15;;;;;;;;;;;;;;;;;;4965639;28;19933;-83
2023/10/22 12:14:42;;;;;;;;;;;;;;;;;;4971610;28;20080;-82
2023/10/22 12:17:07;;;;;;;;;;;;;;;;;;4971799;28;19941;-82
2023/10/22 12:19:33;;;;;;;;;;;;;;;;;;4968968;28;19934;-82
2023/10/22 12:21:59;;;;;;;;;;;;;;;;;;4973717;28;19925;-82
2023/10/22 12:24:25;;;;;;;;;;;;;;;;;;4971596;28;20303;-82
2023/10/22 12:26:54;;;;;;;;;;;;;;;;;;4965100;28;19980;-82
2023/10/22 12:29:20;;;;;;;;;;;;;;;;;;4987404;28;20318;-82
2023/10/22 12:31:46;;;;;;;;;;;;;;;;;;4979925;28;19976;-83
2023/10/22 12:34:12;;;;;;;;;;;;;;;;;;4971519;28;19973;-81
2023/10/22 12:36:38;;;;;;;;;;;;;;;;;;4971497;28;19937;-82
2023/10/22 12:39:07;;;;;;;;;;;;;;;;;;4960930;28;19936;-82
2023/10/22 12:41:39;;;;;;;;;;;;;;;;;;4972285;28;19968;-82
2023/10/22 12:44:05;;;;;;;;;;;;;;;;;;5006947;28;20023;-82
2023/10/22 12:46:31;;;;;;;;;;;;;;;;;;4972599;28;20360;-82
2023/10/22 12:48:57;;;;;;;;;;;;;;;;;;4972929;28;19936;-82
2023/10/22 12:51:23;;;;;;;;;;;;;;;;;;4972882;28;20029;-82
2023/10/22 12:53:49;;;;;;;;;;;;;;;;;;4972746;28;20003;-81
2023/10/22 12:56:16;;;;;;;;;;;;;;;;;;4973638;28;19929;-83
2023/10/22 12:58:42;;;;;;;;;;;;;;;;;;4987383;28;20015;-82
2023/10/22 13:01:07;;;;;;;;;;;;;;;;;;4989690;28;19929;-81
2023/10/22 13:03:33;;;;;;;;;;;;;;;;;;4959155;28;20051;-82
2023/10/22 13:05:59;;;;;;;;;;;;;;;;;;4989324;28;19929;-82
2023/10/22 13:08:25;;;;;;;;;;;;;;;;;;4987597;28;20395;-82
2023/10/22 13:10:51;;;;;;;;;;;;;;;;;;4990080;28;19940;-82
2023/10/22 13:13:17;;;;;;;;;;;;;;;;;;4988246;28;19929;-82
2023/10/22 13:15:43;;;;;;;;;;;;;;;;;;4987964;28;19932;-82
2023/10/22 13:18:09;;;;;;;;;;;;;;;;;;4973334;28;19929;-82
2023/10/22 13:20:35;;;;;;;;;;;;;;;;;;4972391;28;20304;-82
2023/10/22 13:23:01;;;;;;;;;;;;;;;;;;4986371;28;19931;-82
2023/10/22 13:25:27;;;;;;;;;;;;;;;;;;5004538;28;19932;-83
2023/10/22 13:27:53;;;;;;;;;;;;;;;;;;4972371;28;19925;-82
2023/10/22 13:30:19;;;;;;;;;;;;;;;;;;5001822;28;19936;-82
2023/10/22 13:32:45;;;;;;;;;;;;;;;;;;4985085;28;20302;-82
2023/10/22 13:35:11;;;;;;;;;;;;;;;;;;4987868;28;19937;-81
2023/10/22 13:37:37;;;;;;;;;;;;;;;;;;4994792;28;20066;-81
2023/10/22 13:40:03;;;;;;;;;;;;;;;;;;4976871;28;20048;-80
2023/10/22 13:42:29;;;;;;;;;;;;;;;;;;4995596;28;19925;-81
2023/10/22 13:44:55;;;;;;;;;;;;;;;;;;4987933;28;19930;-82
2023/10/22 13:47:21;;;;;;;;;;;;;;;;;;4989276;28;20384;-82
2023/10/22 13:49:48;;;;;;;;;;;;;;;;;;4988624;28;20002;-82
2023/10/22 13:52:14;;;;;;;;;;;;;;;;;;4992872;28;19929;-82
2023/10/22 13:54:40;;;;;;;;;;;;;;;;;;4982846;28;19941;-82
2023/10/22 13:57:06;;;;;;;;;;;;;;;;;;4985656;28;19940;-81
2023/10/22 13:59:32;;;;;;;;;;;;;;;;;;4988413;28;20292;-82
2023/10/22 14:01:59;;;;;;;;;;;;;;;;;;4977270;28;19930;-82
2023/10/22 14:04:25;;;;;;;;;;;;;;;;;;4985555;28;19934;-81
2023/10/22 14:06:51;;;;;;;;;;;;;;;;;;4981671;28;19961;-82
2023/10/22 14:09:16;;;;;;;;;;;;;;;;;;4989042;28;19929;-82
2023/10/22 14:11:42;;;;;;;;;;;;;;;;;;4991070;28;19926;-82
2023/10/22 14:14:08;;;;;;;;;;;;;;;;;;4986517;28;19933;-82
2023/10/22 14:16:36;;;;;;;;;;;;;;;;;;4992768;28;20378;-82
2023/10/22 14:19:02;;;;;;;;;;;;;;;;;;4981143;28;20605;-82
2023/10/22 14:21:28;;;;;;;;;;;;;;;;;;4989269;28;19936;-83
2023/10/22 14:23:54;;;;;;;;;;;;;;;;;;4989982;28;19969;-82
2023/10/22 14:26:20;;;;;;;;;;;;;;;;;;4994011;28;19936;-82
2023/10/22 14:28:46;;;;;;;;;;;;;;;;;;4981645;28;19933;-81
2023/10/22 14:31:12;;;;;;;;;;;;;;;;;;4981997;28;19929;-82
2023/10/22 14:33:38;;;;;;;;;;;;;;;;;;4983336;28;20069;-82
2023/10/22 14:36:04;;;;;;;;;;;;;;;;;;4982720;28;20020;-82
2023/10/22 14:38:30;;;;;;;;;;;;;;;;;;4965322;28;19969;-83
2023/10/22 14:40:56;;;;;;;;;;;;;;;;;;4967666;28;19929;-81
2023/10/22 14:43:22;;;;;;;;;;;;;;;;;;4985921;28;20029;-82
2023/10/22 14:45:47;;;;;;;;;;;;;;;;;;4989330;28;19964;-81
2023/10/22 14:48:15;;;;;;;;;;;;;;;;;;4967316;28;20431;-82
2023/10/22 14:50:41;;;;;;;;;;;;;;;;;;4976436;28;19988;-82
2023/10/22 14:53:07;;;;;;;;;;;;;;;;;;4990797;28;19933;-82
2023/10/22 14:55:33;;;;;;;;;;;;;;;;;;4993824;28;20024;-81
2023/10/22 14:57:58;;;;;;;;;;;;;;;;;;4996494;28;20830;-82
2023/10/22 15:00:24;;;;;;;;;;;;;;;;;;4984394;28;19940;-82
2023/10/22 15:02:50;;;;;;;;;;;;;;;;;;4985942;28;19936;-82
2023/10/22 15:05:18;;;;;;;;;;;;;;;;;;4970487;28;19964;-81
2023/10/22 15:07:44;;;;;;;;;;;;;;;;;;4978388;28;19969;-84
2023/10/22 15:10:14;;;;;;;;;;;;;;;;;;4982697;28;19930;-83
2023/10/22 15:12:42;;;;;;;;;;;;;;;;;;4995571;28;19929;-84
2023/10/22 15:15:11;;;;;;;;;;;;;;;;;;4968237;28;19933;-83
2023/10/22 15:17:37;;;;;;;;;;;;;;;;;;4982366;28;19929;-81
2023/10/22 15:20:03;;;;;;;;;;;;;;;;;;4992098;28;19995;-81
2023/10/22 15:22:29;;;;;;;;;;;;;;;;;;4994752;28;20293;-82
2023/10/22 15:24:54;;;;;;;;;;;;;;;;;;4991290;28;19933;-83
2023/10/22 15:27:20;;;;;;;;;;;;;;;;;;4980933;28;20037;-83
2023/10/22 15:29:46;;;;;;;;;;;;;;;;;;4981212;28;19930;-82
2023/10/22 15:32:21;;;;;;;;;;;;;;;;;;4969687;28;19938;-83
2023/10/22 15:34:47;;;;;;;;;;;;;;;;;;4978687;28;19936;-82
2023/10/22 15:37:13;;;;;;;;;;;;;;;;;;4988590;28;19926;-82
2023/10/22 15:39:39;;;;;;;;;;;;;;;;;;4993218;28;19940;-82
2023/10/22 15:42:05;;;;;;;;;;;;;;;;;;4987525;28;19929;-82
2023/10/22 15:44:31;;;;;;;;;;;;;;;;;;4987624;28;20177;-82
2023/10/22 15:46:57;;;;;;;;;;;;;;;;;;4989029;28;20047;-83
2023/10/22 15:49:23;;;;;;;;;;;;;;;;;;4984914;28;20421;-82
2023/10/22 15:51:49;;;;;;;;;;;;;;;;;;4988376;28;20003;-83
2023/10/22 15:54:18;;;;;;;;;;;;;;;;;;4993511;28;19959;-82
2023/10/22 15:56:44;;;;;;;;;;;;;;;;;;4991143;28;19934;-83
2023/10/22 15:59:10;;;;;;;;;;;;;;;;;;4991474;28;19991;-83
2023/10/22 16:01:36;;;;;;;;;;;;;;;;;;5001808;28;19936;-82
2023/10/22 16:04:03;;;;;;;;;;;;;;;;;;4985412;28;19925;-83
2023/10/22 16:06:28;;;;;;;;;;;;;;;;;;4990051;28;20019;-83
2023/10/22 16:08:54;;;;;;;;;;;;;;;;;;4970345;28;19996;-83
2023/10/22 16:11:20;;;;;;;;;;;;;;;;;;4986213;28;19993;-83
2023/10/22 16:13:46;;;;;;;;;;;;;;;;;;4975833;28;19932;-83
2023/10/22 16:16:12;;;;;;;;;;;;;;;;;;4975916;28;19930;-83
2023/10/22 16:18:38;;;;;;;;;;;;;;;;;;4969860;28;19998;-83
2023/10/22 16:21:04;;;;;;;;;;;;;;;;;;4988663;28;19965;-83
2023/10/22 16:23:30;;;;;;;;;;;;;;;;;;4992488;28;19933;-82
2023/10/22 16:25:56;;;;;;;;;;;;;;;;;;4972056;28;20378;-83
2023/10/22 16:28:22;;;;;;;;;;;;;;;;;;4995577;28;19952;-83
2023/10/22 16:30:49;;;;;;;;;;;;;;;;;;4970761;28;20450;-84
2023/10/22 16:33:15;;;;;;;;;;;;;;;;;;4991204;28;20393;-84
2023/10/22 16:35:41;;;;;;;;;;;;;;;;;;4981578;28;19957;-84
2023/10/22 16:38:07;;;;;;;;;;;;;;;;;;4989369;28;19933;-83
2023/10/22 16:40:33;;;;;;;;;;;;;;;;;;4984549;28;20036;-84
2023/10/22 16:42:59;;;;;;;;;;;;;;;;;;4989063;28;19932;-83
2023/10/22 16:45:25;;;;;;;;;;;;;;;;;;4997034;28;19976;-83
2023/10/22 16:47:51;;;;;;;;;;;;;;;;;;4985519;28;19925;-83
2023/10/22 16:50:19;;;;;;;;;;;;;;;;;;4987999;28;19926;-84
2023/10/22 16:52:45;;;;;;;;;;;;;;;;;;4986066;28;19941;-83
2023/10/22 16:55:11;;;;;;;;;;;;;;;;;;4967229;28;20115;-84
2023/10/22 16:57:37;;;;;;;;;;;;;;;;;;4993507;28;20361;-83
2023/10/22 17:00:07;;;;;;;;;;;;;;;;;;4989081;28;19980;-83
2023/10/22 17:02:33;;;;;;;;;;;;;;;;;;4982178;28;19930;-83
2023/10/22 17:04:59;;;;;;;;;;;;;;;;;;4986543;28;19980;-83
2023/10/22 17:07:25;;;;;;;;;;;;;;;;;;4989945;28;19968;-83
2023/10/22 17:09:52;;;;;;;;;;;;;;;;;;4977277;28;19937;-83
2023/10/22 17:12:17;;;;;;;;;;;;;;;;;;4986384;28;20675;-84
2023/10/22 17:14:43;;;;;;;;;;;;;;;;;;4984184;28;20023;-83
2023/10/22 17:17:09;;;;;;;;;;;;;;;;;;4997810;28;19945;-83
2023/10/22 17:19:35;;;;;;;;;;;;;;;;;;4987576;28;19926;-84
2023/10/22 17:22:01;;;;;;;;;;;;;;;;;;4979354;28;20106;-83
2023/10/22 17:24:27;;;;;;;;;;;;;;;;;;4960132;28;19945;-84